createdAt,value
2019-01-19T00:01:46.679Z,-0.90
2019-01-19T00:04:43.035Z,-0.90
2019-01-19T00:07:21.719Z,-1.00
2019-01-19T00:10:09.524Z,-1.00
2019-01-19T00:13:16.809Z,-1.00
2019-01-19T00:15:58.598Z,-1.00
2019-01-19T00:18:40.303Z,-1.10
2019-01-19T00:21:29.348Z,-1.10
2019-01-19T00:24:01.899Z,-1.10
2019-01-19T00:26:49.987Z,-1.20
2019-01-19T00:29:22.541Z,-1.20
2019-01-19T00:31:55.079Z,-1.20
2019-01-19T00:34:42.932Z,-1.30
2019-01-19T00:37:15.404Z,-1.30
2019-01-19T00:39:50.851Z,-1.40
2019-01-19T00:42:26.226Z,-1.40
2019-01-19T00:44:58.709Z,-1.40
2019-01-19T00:47:49.046Z,-1.40
2019-01-19T00:50:45.487Z,-1.40
2019-01-19T00:53:27.132Z,-1.40
2019-01-19T00:56:11.507Z,-1.40
2019-01-19T00:58:44.126Z,-1.40
2019-01-19T01:01:43.855Z,-1.50
2019-01-19T01:04:35.667Z,-1.50
2019-01-19T01:07:19.770Z,-1.50
2019-01-19T01:10:10.217Z,-1.60
2019-01-19T01:12:57.352Z,-1.60
2019-01-19T01:15:57.298Z,-1.50
2019-01-19T01:18:35.325Z,-1.50
2019-01-19T01:21:23.056Z,-1.50
2019-01-19T01:24:04.425Z,-1.50
2019-01-19T01:26:43.118Z,-1.50
2019-01-19T01:29:15.586Z,-1.50
2019-01-19T01:31:50.754Z,-1.50
2019-01-19T01:34:45.651Z,-1.50
2019-01-19T01:37:20.998Z,-1.60
2019-01-19T01:40:04.879Z,-1.60
2019-01-19T01:42:55.225Z,-1.60
2019-01-19T01:45:40.107Z,-1.50
2019-01-19T01:48:15.576Z,-1.50
2019-01-19T01:50:48.135Z,-1.50
2019-01-19T01:53:43.411Z,-1.50
2019-01-19T01:56:13.328Z,-1.50
2019-01-19T01:59:03.583Z,-1.50
2019-01-19T02:01:51.446Z,-1.60
2019-01-19T02:04:45.346Z,-1.60
2019-01-19T02:07:33.218Z,-1.60
2019-01-19T02:10:18.202Z,-1.60
2019-01-19T02:12:53.727Z,-1.60
2019-01-19T02:15:35.003Z,-1.60
2019-01-19T02:18:16.458Z,-1.70
2019-01-19T02:21:00.919Z,-1.70
2019-01-19T02:23:48.560Z,-1.60
2019-01-19T02:26:32.852Z,-1.60
2019-01-19T02:29:18.398Z,-1.70
2019-01-19T02:31:56.630Z,-1.70
2019-01-19T02:34:34.977Z,-1.70
2019-01-19T02:37:22.830Z,-1.70
2019-01-19T02:39:57.759Z,-1.80
2019-01-19T02:42:48.433Z,-1.80
2019-01-19T02:45:39.331Z,-1.80
2019-01-19T02:48:45.203Z,-1.70
2019-01-19T02:51:23.518Z,-1.70
2019-01-19T02:54:05.177Z,-1.70
2019-01-19T02:56:40.578Z,-1.70
2019-01-19T02:59:32.395Z,-1.80
2019-01-19T03:02:10.859Z,-1.80
2019-01-19T03:04:49.235Z,-1.80
2019-01-19T03:07:24.583Z,-1.80
2019-01-19T03:10:19.831Z,-1.80
2019-01-19T03:13:19.528Z,-1.80
2019-01-19T03:16:03.948Z,-1.90
2019-01-19T03:18:48.423Z,-1.90
2019-01-19T03:21:29.735Z,-1.90
2019-01-19T03:24:07.749Z,-1.90
2019-01-19T03:26:43.335Z,-1.90
2019-01-19T03:29:21.920Z,-2.00
2019-01-19T03:32:09.580Z,-2.00
2019-01-19T03:34:57.058Z,-2.00
2019-01-19T03:37:47.527Z,-2.00
2019-01-19T03:40:32.062Z,-2.00
2019-01-19T03:43:07.459Z,-2.10
2019-01-19T03:45:43.060Z,-2.10
2019-01-19T03:48:21.531Z,-2.10
2019-01-19T03:50:54.139Z,-2.20
2019-01-19T03:53:35.990Z,-2.20
2019-01-19T03:56:29.957Z,-2.10
2019-01-19T03:59:05.571Z,-2.20
2019-01-19T04:01:44.020Z,-2.20
2019-01-19T04:04:22.611Z,-2.20
2019-01-19T04:07:00.695Z,-2.20
2019-01-19T04:09:49.915Z,-2.20
2019-01-19T04:12:34.216Z,-2.20
2019-01-19T04:15:09.887Z,-2.20
2019-01-19T04:17:54.135Z,-2.20
2019-01-19T04:20:36.122Z,-2.20
2019-01-19T04:23:06.324Z,-2.30
2019-01-19T04:25:40.603Z,-2.30
2019-01-19T04:28:10.438Z,-2.40
2019-01-19T04:30:39.825Z,-2.40
2019-01-19T04:33:09.260Z,-2.50
2019-01-19T04:35:38.706Z,-2.50
2019-01-19T04:38:08.354Z,-2.50
2019-01-19T04:40:37.851Z,-2.50
2019-01-19T04:43:07.450Z,-2.50
2019-01-19T04:45:37.007Z,-2.40
2019-01-19T04:48:07.701Z,-2.50
2019-01-19T04:50:38.562Z,-2.50
2019-01-19T04:53:08.405Z,-2.60
2019-01-19T04:55:38.422Z,-2.60
2019-01-19T04:58:07.849Z,-2.60
2019-01-19T05:00:37.243Z,-2.70
2019-01-19T05:03:06.683Z,-2.70
2019-01-19T05:05:36.325Z,-2.80
2019-01-19T05:08:06.958Z,-2.70
2019-01-19T05:10:36.351Z,-2.70
2019-01-19T05:13:05.970Z,-2.70
2019-01-19T05:15:35.512Z,-2.60
2019-01-19T05:18:05.824Z,-2.60
2019-01-19T05:20:35.214Z,-2.50
2019-01-19T05:23:04.754Z,-2.50
2019-01-19T05:25:36.027Z,-2.50
2019-01-19T05:28:05.621Z,-2.50
2019-01-19T05:30:35.035Z,-2.40
2019-01-19T05:33:04.524Z,-2.40
2019-01-19T05:35:34.061Z,-2.40
2019-01-19T05:38:03.576Z,-2.40
2019-01-19T05:40:33.121Z,-2.40
2019-01-19T05:43:02.479Z,-2.40
2019-01-19T05:45:31.876Z,-2.30
2019-01-19T05:48:01.371Z,-2.40
2019-01-19T05:50:30.768Z,-2.40
2019-01-19T05:53:00.442Z,-2.50
2019-01-19T05:55:29.968Z,-2.50
2019-01-19T05:57:59.322Z,-2.50
2019-01-19T06:00:30.413Z,-2.50
2019-01-19T06:02:59.868Z,-2.50
2019-01-19T06:05:29.335Z,-2.50
2019-01-19T06:07:58.862Z,-2.50
2019-01-19T06:10:28.338Z,-2.40
2019-01-19T06:13:17.078Z,-2.50
2019-01-19T06:15:46.641Z,-2.50
2019-01-19T06:18:16.338Z,-2.50
2019-01-19T06:20:45.730Z,-2.50
2019-01-19T06:23:15.233Z,-2.50
2019-01-19T06:25:44.968Z,-2.50
2019-01-19T06:28:14.503Z,-2.50
2019-01-19T06:30:43.981Z,-2.50
2019-01-19T06:33:13.458Z,-2.50
2019-01-19T06:35:42.927Z,-2.50
2019-01-19T06:38:13.100Z,-2.60
2019-01-19T06:40:42.562Z,-2.60
2019-01-19T06:43:11.963Z,-2.60
2019-01-19T06:45:41.362Z,-2.70
2019-01-19T06:48:10.758Z,-2.70
2019-01-19T06:50:40.202Z,-2.60
2019-01-19T06:53:09.672Z,-2.60
2019-01-19T06:55:39.102Z,-2.60
2019-01-19T06:58:08.573Z,-2.60
2019-01-19T07:00:38.432Z,-2.60
2019-01-19T07:03:07.965Z,-2.60
2019-01-19T07:05:37.361Z,-2.60
2019-01-19T07:08:06.936Z,-2.60
2019-01-19T07:10:36.293Z,-2.60
2019-01-19T07:13:05.694Z,-2.70
2019-01-19T07:15:35.202Z,-2.70
2019-01-19T07:18:07.913Z,-2.70
2019-01-19T07:20:37.354Z,-2.70
2019-01-19T07:23:06.909Z,-2.70
2019-01-19T07:25:55.751Z,-2.70
2019-01-19T07:28:25.375Z,-2.70
2019-01-19T07:30:54.734Z,-2.70
2019-01-19T07:33:24.297Z,-2.70
2019-01-19T07:35:53.859Z,-2.70
2019-01-19T07:38:24.861Z,-2.70
2019-01-19T07:40:55.011Z,-2.70
2019-01-19T07:43:24.964Z,-2.70
2019-01-19T07:45:54.576Z,-2.70
2019-01-19T07:48:24.196Z,-2.70
2019-01-19T07:51:05.424Z,-2.60
2019-01-19T07:53:34.880Z,-2.60
2019-01-19T07:56:04.515Z,-2.60
2019-01-19T07:58:35.567Z,-2.60
2019-01-19T08:01:05.110Z,-2.60
2019-01-19T08:03:34.610Z,-2.60
2019-01-19T08:06:04.233Z,-2.50
2019-01-19T08:11:44.098Z,-2.50
2019-01-19T08:14:13.471Z,-2.50
2019-01-19T08:16:42.940Z,-2.50
2019-01-19T08:19:12.517Z,-2.50
2019-01-19T08:21:42.123Z,-2.50
2019-01-19T08:24:11.667Z,-2.40
2019-01-19T08:26:41.352Z,-2.30
2019-01-19T08:29:10.801Z,-2.10
2019-01-19T08:31:40.412Z,-2.00
2019-01-19T08:34:10.058Z,-1.90
2019-01-19T08:36:39.462Z,-1.80
2019-01-19T08:39:22.097Z,-1.70
2019-01-19T08:41:54.621Z,-1.50
2019-01-19T08:44:24.158Z,-1.30
2019-01-19T08:47:06.979Z,-0.90
2019-01-19T08:49:36.514Z,-0.60
2019-01-19T08:52:06.061Z,-0.30
2019-01-19T08:54:35.779Z,-0.10
2019-01-19T08:57:05.259Z,0.20
2019-01-19T08:59:34.717Z,0.10
2019-01-19T09:02:06.168Z,0.20
2019-01-19T09:04:35.631Z,0.40
2019-01-19T09:07:05.173Z,0.70
2019-01-19T09:09:34.649Z,0.90
2019-01-19T09:12:04.339Z,1.20
2019-01-19T09:14:33.911Z,1.70
2019-01-19T09:17:03.302Z,1.90
2019-01-19T09:19:32.945Z,2.00
2019-01-19T09:22:02.504Z,2.00
2019-01-19T09:24:32.084Z,2.10
2019-01-19T09:27:01.556Z,2.20
2019-01-19T09:29:30.941Z,2.40
2019-01-19T09:32:00.408Z,2.60
2019-01-19T09:34:29.940Z,2.70
2019-01-19T09:36:59.775Z,2.90
2019-01-19T09:39:29.460Z,3.20
2019-01-19T09:41:58.919Z,3.40
2019-01-19T09:44:28.529Z,3.30
2019-01-19T09:46:57.987Z,3.00
2019-01-19T09:49:28.976Z,3.20
2019-01-19T09:51:58.481Z,3.20
2019-01-19T09:54:27.943Z,3.10
2019-01-19T09:56:57.341Z,2.90
2019-01-19T09:59:26.752Z,3.10
2019-01-19T10:01:57.743Z,3.40
2019-01-19T10:04:27.206Z,3.40
2019-01-19T10:06:56.692Z,4.00
2019-01-19T10:09:28.011Z,4.00
2019-01-19T10:11:57.472Z,4.50
2019-01-19T10:14:26.864Z,4.40
2019-01-19T10:16:56.462Z,4.00
2019-01-19T10:19:26.099Z,3.90
2019-01-19T10:21:55.496Z,4.10
2019-01-19T10:24:24.902Z,4.50
2019-01-19T10:26:54.366Z,4.60
2019-01-19T10:29:24.204Z,4.00
2019-01-19T10:31:53.742Z,4.10
2019-01-19T10:34:23.377Z,3.90
2019-01-19T10:36:54.767Z,4.20
2019-01-19T10:39:24.296Z,3.70
2019-01-19T10:41:53.683Z,3.50
2019-01-19T10:44:23.157Z,4.00
2019-01-19T10:46:54.313Z,4.40
2019-01-19T10:49:24.554Z,4.40
2019-01-19T10:51:59.347Z,4.70
2019-01-19T10:54:25.472Z,5.10
2019-01-19T10:56:54.919Z,4.80
2019-01-19T10:59:24.322Z,4.80
2019-01-19T11:01:53.702Z,5.10
2019-01-19T11:04:23.100Z,5.40
2019-01-19T11:06:52.685Z,5.30
2019-01-19T11:09:22.327Z,5.10
2019-01-19T11:11:51.845Z,5.10
2019-01-19T11:14:21.410Z,5.30
2019-01-19T11:16:51.057Z,5.40
2019-01-19T11:19:20.475Z,5.00
2019-01-19T11:21:49.948Z,5.20
2019-01-19T11:24:19.407Z,5.40
2019-01-19T11:26:48.811Z,6.00
2019-01-19T11:29:19.867Z,5.50
2019-01-19T11:31:49.404Z,5.50
2019-01-19T11:34:18.859Z,5.90
2019-01-19T11:36:48.244Z,6.30
2019-01-19T11:39:17.780Z,6.50
2019-01-19T11:41:47.236Z,6.50
2019-01-19T11:44:16.699Z,6.40
2019-01-19T11:46:46.103Z,5.60
2019-01-19T11:49:15.711Z,4.60
2019-01-19T11:51:45.244Z,3.80
2019-01-19T11:54:15.125Z,3.00
2019-01-19T11:56:44.722Z,2.50
2019-01-19T11:59:14.175Z,2.20
2019-01-19T12:01:43.627Z,2.10
2019-01-19T12:04:13.087Z,2.00
2019-01-19T12:06:42.547Z,1.90
2019-01-19T12:09:12.165Z,1.90
2019-01-19T12:11:41.623Z,1.90
2019-01-19T12:14:12.680Z,1.90
2019-01-19T12:16:42.126Z,1.90
2019-01-19T12:19:11.523Z,1.90
2019-01-19T12:21:40.978Z,1.90
2019-01-19T12:24:10.442Z,1.90
2019-01-19T12:26:40.073Z,2.00
2019-01-19T12:29:09.481Z,2.00
2019-01-19T12:31:38.992Z,2.10
2019-01-19T12:34:08.443Z,2.10
2019-01-19T12:36:39.729Z,2.10
2019-01-19T12:39:09.409Z,2.10
2019-01-19T12:41:38.941Z,2.10
2019-01-19T12:44:08.632Z,2.00
2019-01-19T12:46:38.152Z,2.00
2019-01-19T12:49:07.679Z,2.00
2019-01-19T12:51:37.151Z,1.90
2019-01-19T12:54:06.722Z,1.90
2019-01-19T12:56:36.429Z,1.80
2019-01-19T12:59:05.803Z,1.80
2019-01-19T13:01:35.287Z,1.80
2019-01-19T13:04:05.205Z,1.90
2019-01-19T13:06:38.751Z,1.90
2019-01-19T13:09:12.579Z,1.90
2019-01-19T13:11:59.071Z,1.80
2019-01-19T13:14:29.771Z,1.90
2019-01-19T13:17:18.971Z,1.80
2019-01-19T13:19:59.897Z,1.80
2019-01-19T13:22:52.188Z,1.90
2019-01-19T13:25:43.069Z,1.90
2019-01-19T13:28:24.478Z,2.00
2019-01-19T13:31:11.722Z,2.10
2019-01-19T13:33:59.204Z,2.10
2019-01-19T13:36:40.491Z,2.20
2019-01-19T13:39:22.502Z,2.20
2019-01-19T13:42:17.822Z,2.20
2019-01-19T13:44:50.378Z,2.10
2019-01-19T13:47:55.081Z,2.00
2019-01-19T13:50:33.224Z,2.00
2019-01-19T13:53:22.359Z,1.90
2019-01-19T13:56:14.315Z,1.80
2019-01-19T13:58:58.795Z,1.80
2019-01-19T14:01:53.469Z,1.70
2019-01-19T14:04:25.937Z,1.70
2019-01-19T14:07:04.532Z,1.60
2019-01-19T14:09:39.546Z,1.50
2019-01-19T14:12:36.383Z,1.50
2019-01-19T14:15:11.509Z,1.60
2019-01-19T14:17:46.825Z,1.50
2019-01-19T14:20:45.113Z,1.40
2019-01-19T14:23:27.267Z,1.40
2019-01-19T14:25:59.735Z,1.40
2019-01-19T14:28:51.680Z,1.40
2019-01-19T14:31:38.679Z,1.40
2019-01-19T14:34:14.787Z,1.40
2019-01-19T14:36:50.077Z,1.40
2019-01-19T14:39:40.593Z,1.30
2019-01-19T14:42:13.132Z,1.30
2019-01-19T14:45:14.335Z,1.20
2019-01-19T14:47:46.885Z,1.00
2019-01-19T14:50:28.443Z,0.90
2019-01-19T14:53:03.681Z,0.90
2019-01-19T14:55:54.300Z,0.90
2019-01-19T14:58:35.752Z,0.90
2019-01-19T15:01:13.784Z,0.80
2019-01-19T15:03:46.264Z,0.70
2019-01-19T15:06:30.632Z,0.60
2019-01-19T15:09:22.934Z,0.60
2019-01-19T15:12:04.489Z,0.60
2019-01-19T15:14:52.075Z,0.50
2019-01-19T15:17:25.290Z,0.40
2019-01-19T15:20:12.897Z,0.30
2019-01-19T15:23:12.732Z,0.20
2019-01-19T15:25:45.496Z,0.10
2019-01-19T15:28:38.002Z,0.10
2019-01-19T15:31:12.159Z,0.00
2019-01-19T15:33:53.516Z,0.00
2019-01-19T15:36:49.677Z,0.10
2019-01-19T15:39:33.524Z,0.00
2019-01-19T15:42:15.314Z,0.00
2019-01-19T15:44:50.472Z,0.00
2019-01-19T15:47:25.886Z,0.00
2019-01-19T15:50:16.286Z,0.00
2019-01-19T15:53:05.071Z,-0.10
2019-01-19T15:55:56.299Z,-0.20
2019-01-19T15:58:34.614Z,-0.20
2019-01-19T16:01:25.155Z,-0.30
2019-01-19T16:04:14.027Z,-0.40
2019-01-19T16:07:01.679Z,-0.50
2019-01-19T16:10:02.603Z,-0.50
2019-01-19T16:12:46.822Z,-0.60
2019-01-19T16:15:27.992Z,-0.70
2019-01-19T16:18:02.074Z,-0.70
2019-01-19T16:20:46.522Z,-0.80
2019-01-19T16:23:30.999Z,-0.80
2019-01-19T16:26:25.729Z,-0.80
2019-01-19T16:29:03.795Z,-0.80
2019-01-19T16:31:52.518Z,-0.80
2019-01-19T16:34:33.559Z,-0.90
2019-01-19T16:37:14.840Z,-1.00
2019-01-19T16:40:03.646Z,-1.00
2019-01-19T16:42:44.635Z,-1.10
2019-01-19T16:45:33.411Z,-1.10
2019-01-19T16:48:11.662Z,-1.10
2019-01-19T16:50:44.168Z,-1.20
2019-01-19T16:53:33.276Z,-1.10
2019-01-19T16:56:08.305Z,-1.20
2019-01-19T16:59:01.660Z,-1.30
2019-01-19T17:01:50.968Z,-1.30
2019-01-19T17:04:41.405Z,-1.40
2019-01-19T17:07:28.843Z,-1.40
2019-01-19T17:10:10.239Z,-1.40
2019-01-19T17:12:45.395Z,-1.50
2019-01-19T17:15:29.775Z,-1.60
2019-01-19T17:18:14.170Z,-1.70
2019-01-19T17:21:13.295Z,-1.70
2019-01-19T17:23:57.377Z,-1.70
2019-01-19T17:27:09.989Z,-1.70
2019-01-19T17:30:16.265Z,-1.60
2019-01-19T17:32:57.743Z,-1.60
2019-01-19T17:35:45.015Z,-1.70
2019-01-19T17:38:17.625Z,-1.70
2019-01-19T17:41:02.254Z,-1.60
2019-01-19T17:43:46.802Z,-1.50
2019-01-19T17:46:19.278Z,-1.40
2019-01-19T17:49:09.886Z,-1.40
2019-01-19T17:52:03.831Z,-1.40
2019-01-19T17:55:02.179Z,-1.50
2019-01-19T17:57:40.538Z,-1.50
2019-01-19T18:00:21.943Z,-1.60
2019-01-19T18:02:56.083Z,-1.50
2019-01-19T18:05:32.837Z,-1.50
2019-01-19T18:08:20.039Z,-1.50
2019-01-19T18:10:58.591Z,-1.40
2019-01-19T18:13:39.911Z,-1.50
2019-01-19T18:16:14.926Z,-1.50
2019-01-19T18:18:59.127Z,-1.40
2019-01-19T18:21:48.348Z,-1.50
2019-01-19T18:24:26.065Z,-1.50
2019-01-19T18:27:09.951Z,-1.50
2019-01-19T18:29:54.307Z,-1.50
2019-01-19T18:32:32.403Z,-1.50
2019-01-19T18:35:39.218Z,-1.50
2019-01-19T18:38:23.362Z,-1.40
2019-01-19T18:41:12.066Z,-1.50
2019-01-19T18:43:50.308Z,-1.50
2019-01-19T18:46:39.357Z,-1.50
2019-01-19T18:49:28.136Z,-1.50
2019-01-19T18:52:16.731Z,-1.60
2019-01-19T18:54:59.682Z,-1.70
2019-01-19T18:57:40.807Z,-1.80
2019-01-19T19:00:31.010Z,-1.80
2019-01-19T19:03:31.819Z,-1.90
2019-01-19T19:06:18.767Z,-2.00
2019-01-19T19:09:09.030Z,-2.00
2019-01-19T19:12:14.364Z,-1.90
2019-01-19T19:15:08.353Z,-1.90
2019-01-19T19:17:46.051Z,-2.00
2019-01-19T19:20:21.348Z,-2.10
2019-01-19T19:23:13.493Z,-2.10
2019-01-19T19:26:13.362Z,-2.20
2019-01-19T19:28:45.811Z,-2.30
2019-01-19T19:31:30.124Z,-2.30
2019-01-19T19:34:02.699Z,-2.30
2019-01-19T19:36:53.624Z,-2.30
2019-01-19T19:39:38.131Z,-2.40
2019-01-19T19:42:35.066Z,-2.40
2019-01-19T19:45:13.528Z,-2.40
2019-01-19T19:48:01.181Z,-2.50
2019-01-19T19:50:45.608Z,-2.50
2019-01-19T19:53:15.196Z,-2.50
2019-01-19T19:55:43.561Z,-2.50
2019-01-19T19:58:14.612Z,-2.60
2019-01-19T20:00:44.221Z,-2.50
2019-01-19T20:03:13.816Z,-2.60
2019-01-19T20:05:43.328Z,-2.70
2019-01-19T20:08:12.864Z,-2.70
2019-01-19T20:10:42.298Z,-2.60
2019-01-19T20:13:11.720Z,-2.60
2019-01-19T20:16:01.502Z,-2.40
2019-01-19T20:18:30.990Z,-2.20
2019-01-19T20:21:00.460Z,-2.20
2019-01-19T20:23:29.869Z,-2.20
2019-01-19T20:25:59.340Z,-2.20
2019-01-19T20:28:28.814Z,-2.30
2019-01-19T20:30:58.276Z,-2.30
2019-01-19T20:33:27.758Z,-2.30
2019-01-19T20:35:57.270Z,-2.30
2019-01-19T20:38:29.786Z,-2.20
2019-01-19T20:40:59.454Z,-2.10
2019-01-19T20:43:28.918Z,-2.20
2019-01-19T20:45:58.494Z,-2.10
2019-01-19T20:48:28.205Z,-2.00
2019-01-19T20:50:57.669Z,-2.00
2019-01-19T20:53:27.134Z,-2.00
2019-01-19T20:55:56.515Z,-2.10
2019-01-19T20:58:25.908Z,-2.00
2019-01-19T21:00:57.389Z,-1.90
2019-01-19T21:03:26.923Z,-1.90
2019-01-19T21:05:56.375Z,-1.90
2019-01-19T21:08:25.824Z,-1.90
2019-01-19T21:10:55.207Z,-1.80
2019-01-19T21:13:24.907Z,-1.80
2019-01-19T21:15:54.278Z,-1.80
2019-01-19T21:18:23.680Z,-1.70
2019-01-19T21:20:53.067Z,-1.70
2019-01-19T21:23:35.922Z,-1.70
2019-01-19T21:26:05.391Z,-1.70
2019-01-19T21:28:34.967Z,-1.80
2019-01-19T21:31:04.356Z,-1.80
2019-01-19T21:33:35.390Z,-1.90
2019-01-19T21:36:05.473Z,-1.90
2019-01-19T21:38:34.871Z,-1.90
2019-01-19T21:41:04.324Z,-2.00
2019-01-19T21:43:33.819Z,-2.10
2019-01-19T21:46:03.447Z,-2.20
2019-01-19T21:48:33.074Z,-2.30
2019-01-19T21:51:02.519Z,-2.40
2019-01-19T21:53:31.929Z,-2.50
2019-01-19T21:56:01.360Z,-2.50
2019-01-19T21:58:32.124Z,-2.60
2019-01-19T22:01:01.590Z,-2.70
2019-01-19T22:03:31.340Z,-2.70
2019-01-19T22:06:00.771Z,-2.80
2019-01-19T22:08:30.161Z,-2.90
2019-01-19T22:10:59.582Z,-2.90
2019-01-19T22:13:29.031Z,-2.80
2019-01-19T22:15:58.534Z,-2.80
2019-01-19T22:18:27.994Z,-2.90
2019-01-19T22:20:57.486Z,-3.00
2019-01-19T22:23:26.875Z,-3.00
2019-01-19T22:25:56.336Z,-3.00
2019-01-19T22:28:25.806Z,-3.00
2019-01-19T22:30:55.167Z,-3.00
2019-01-19T22:33:24.999Z,-3.10
2019-01-19T22:35:54.350Z,-3.00
2019-01-19T22:38:23.743Z,-3.00
2019-01-19T22:40:53.760Z,-3.00
2019-01-19T22:43:26.259Z,-3.10
2019-01-19T22:45:55.733Z,-3.20
2019-01-19T22:48:25.278Z,-3.20
2019-01-19T22:50:54.675Z,-3.20
2019-01-19T22:53:24.359Z,-3.20
2019-01-19T22:55:54.006Z,-3.20
2019-01-19T22:58:23.463Z,-3.10
2019-01-19T23:01:03.488Z,-3.00
2019-01-19T23:03:33.748Z,-3.00
2019-01-19T23:06:03.258Z,-3.00
2019-01-19T23:08:32.793Z,-3.10
2019-01-19T23:11:02.444Z,-3.10
2019-01-19T23:13:33.438Z,-3.20
2019-01-19T23:16:03.131Z,-3.20
2019-01-19T23:18:32.729Z,-3.10
2019-01-19T23:21:02.267Z,-3.00
2019-01-19T23:23:31.627Z,-2.90
2019-01-19T23:26:02.458Z,-2.90
2019-01-19T23:28:31.950Z,-2.90
2019-01-19T23:31:01.372Z,-2.90
2019-01-19T23:33:30.759Z,-3.10
2019-01-19T23:36:00.338Z,-3.10
2019-01-19T23:38:29.893Z,-3.20
2019-01-19T23:40:59.322Z,-3.20
2019-01-19T23:43:28.973Z,-3.20
2019-01-19T23:45:58.332Z,-3.20
2019-01-19T23:48:27.724Z,-3.10
2019-01-19T23:50:57.160Z,-3.00
2019-01-19T23:53:26.614Z,-3.00
2019-01-19T23:55:56.042Z,-2.90
2019-01-19T23:58:25.446Z,-2.90
